sensor_id;sensor_type;location;lat;lon;timestamp;pressure;altitude;pressure_sealevel;temperature
12854;BMP180;6495;51.808;7.478;2023-03-14T00:00:00;98547.00;;;12.40
12854;BMP180;6495;51.808;7.478;2023-03-14T00:02:32;98527.00;;;12.40
12854;BMP180;6495;51.808;7.478;2023-03-14T00:05:01;98531.00;;;12.40
12854;BMP180;6495;51.808;7.478;2023-03-14T00:07:34;98526.00;;;12.40
12854;BMP180;6495;51.808;7.478;2023-03-14T00:10:06;98537.00;;;12.40
12854;BMP180;6495;51.808;7.478;2023-03-14T00:12:35;98535.00;;;12.40
12854;BMP180;6495;51.808;7.478;2023-03-14T00:15:06;98540.00;;;12.40
12854;BMP180;6495;51.808;7.478;2023-03-14T00:17:36;98526.00;;;12.30
12854;BMP180;6495;51.808;7.478;2023-03-14T00:20:07;98537.00;;;12.40
12854;BMP180;6495;51.808;7.478;2023-03-14T00:22:37;98543.00;;;12.30
12854;BMP180;6495;51.808;7.478;2023-03-14T00:25:08;98513.00;;;12.30
12854;BMP180;6495;51.808;7.478;2023-03-14T00:27:37;98507.00;;;12.30
12854;BMP180;6495;51.808;7.478;2023-03-14T00:30:11;98493.00;;;12.30
12854;BMP180;6495;51.808;7.478;2023-03-14T00:32:40;98484.00;;;12.30
12854;BMP180;6495;51.808;7.478;2023-03-14T00:35:09;98461.00;;;12.30
12854;BMP180;6495;51.808;7.478;2023-03-14T00:37:37;98443.00;;;12.30
12854;BMP180;6495;51.808;7.478;2023-03-14T00:40:08;98459.00;;;12.30
12854;BMP180;6495;51.808;7.478;2023-03-14T00:42:36;98475.00;;;12.30
12854;BMP180;6495;51.808;7.478;2023-03-14T00:45:08;98473.00;;;12.20
12854;BMP180;6495;51.808;7.478;2023-03-14T00:47:37;98483.00;;;12.20
12854;BMP180;6495;51.808;7.478;2023-03-14T00:50:07;98489.00;;;12.20
12854;BMP180;6495;51.808;7.478;2023-03-14T00:52:35;98514.00;;;12.10
12854;BMP180;6495;51.808;7.478;2023-03-14T00:55:05;98530.00;;;12.10
12854;BMP180;6495;51.808;7.478;2023-03-14T00:57:34;98526.00;;;12.00
12854;BMP180;6495;51.808;7.478;2023-03-14T01:00:03;98511.00;;;12.00
12854;BMP180;6495;51.808;7.478;2023-03-14T01:02:36;98499.00;;;12.00
12854;BMP180;6495;51.808;7.478;2023-03-14T01:05:06;98478.00;;;11.90
12854;BMP180;6495;51.808;7.478;2023-03-14T01:07:34;98475.00;;;11.90
12854;BMP180;6495;51.808;7.478;2023-03-14T01:10:07;98474.00;;;11.90
12854;BMP180;6495;51.808;7.478;2023-03-14T01:12:36;98466.00;;;11.90
12854;BMP180;6495;51.808;7.478;2023-03-14T01:15:06;98465.00;;;11.90
12854;BMP180;6495;51.808;7.478;2023-03-14T01:17:36;98479.00;;;11.80
12854;BMP180;6495;51.808;7.478;2023-03-14T01:20:09;98484.00;;;11.80
12854;BMP180;6495;51.808;7.478;2023-03-14T01:22:39;98481.00;;;11.80
12854;BMP180;6495;51.808;7.478;2023-03-14T01:25:09;98486.00;;;11.70
12854;BMP180;6495;51.808;7.478;2023-03-14T01:27:38;98484.00;;;11.80
12854;BMP180;6495;51.808;7.478;2023-03-14T01:30:09;98483.00;;;11.80
12854;BMP180;6495;51.808;7.478;2023-03-14T01:32:40;98499.00;;;11.80
12854;BMP180;6495;51.808;7.478;2023-03-14T01:35:08;98509.00;;;11.80
12854;BMP180;6495;51.808;7.478;2023-03-14T01:37:37;98508.00;;;11.70
12854;BMP180;6495;51.808;7.478;2023-03-14T01:40:11;98513.00;;;11.70
12854;BMP180;6495;51.808;7.478;2023-03-14T01:42:46;98501.00;;;11.70
12854;BMP180;6495;51.808;7.478;2023-03-14T01:46:06;98512.00;;;11.60
12854;BMP180;6495;51.808;7.478;2023-03-14T01:48:48;98504.00;;;11.50
12854;BMP180;6495;51.808;7.478;2023-03-14T01:51:25;98496.00;;;11.40
12854;BMP180;6495;51.808;7.478;2023-03-14T01:54:05;98482.00;;;11.30
12854;BMP180;6495;51.808;7.478;2023-03-14T01:56:36;98476.00;;;11.20
12854;BMP180;6495;51.808;7.478;2023-03-14T01:59:07;98479.00;;;11.20
12854;BMP180;6495;51.808;7.478;2023-03-14T02:01:38;98481.00;;;11.20
12854;BMP180;6495;51.808;7.478;2023-03-14T02:04:10;98476.00;;;11.10
12854;BMP180;6495;51.808;7.478;2023-03-14T02:06:49;98482.00;;;11.00
12854;BMP180;6495;51.808;7.478;2023-03-14T02:09:22;98475.00;;;11.00
12854;BMP180;6495;51.808;7.478;2023-03-14T02:11:51;98475.00;;;11.00
12854;BMP180;6495;51.808;7.478;2023-03-14T02:14:37;98477.00;;;10.90
12854;BMP180;6495;51.808;7.478;2023-03-14T02:17:20;98469.00;;;10.80
12854;BMP180;6495;51.808;7.478;2023-03-14T02:20:28;98456.00;;;10.80
12854;BMP180;6495;51.808;7.478;2023-03-14T02:22:59;98468.00;;;10.80
12854;BMP180;6495;51.808;7.478;2023-03-14T02:25:39;98475.00;;;10.80
12854;BMP180;6495;51.808;7.478;2023-03-14T02:28:12;98477.00;;;10.80
12854;BMP180;6495;51.808;7.478;2023-03-14T02:30:42;98481.00;;;10.80
12854;BMP180;6495;51.808;7.478;2023-03-14T02:33:15;98476.00;;;10.80
12854;BMP180;6495;51.808;7.478;2023-03-14T02:35:50;98470.00;;;10.70
12854;BMP180;6495;51.808;7.478;2023-03-14T02:38:27;98478.00;;;10.70
12854;BMP180;6495;51.808;7.478;2023-03-14T02:40:59;98474.00;;;10.70
12854;BMP180;6495;51.808;7.478;2023-03-14T02:43:33;98468.00;;;10.70
12854;BMP180;6495;51.808;7.478;2023-03-14T02:46:05;98475.00;;;10.70
12854;BMP180;6495;51.808;7.478;2023-03-14T02:48:40;98478.00;;;10.70
12854;BMP180;6495;51.808;7.478;2023-03-14T02:51:11;98475.00;;;10.60
12854;BMP180;6495;51.808;7.478;2023-03-14T02:53:41;98487.00;;;10.60
12854;BMP180;6495;51.808;7.478;2023-03-14T02:56:12;98483.00;;;10.60
12854;BMP180;6495;51.808;7.478;2023-03-14T02:58:42;98481.00;;;10.60
12854;BMP180;6495;51.808;7.478;2023-03-14T03:01:23;98480.00;;;10.70
12854;BMP180;6495;51.808;7.478;2023-03-14T03:03:51;98484.00;;;10.70
12854;BMP180;6495;51.808;7.478;2023-03-14T03:06:20;98476.00;;;10.70
12854;BMP180;6495;51.808;7.478;2023-03-14T03:08:48;98480.00;;;10.70
12854;BMP180;6495;51.808;7.478;2023-03-14T03:11:17;98465.00;;;10.70
12854;BMP180;6495;51.808;7.478;2023-03-14T03:13:47;98470.00;;;10.70
12854;BMP180;6495;51.808;7.478;2023-03-14T03:16:15;98465.00;;;10.60
12854;BMP180;6495;51.808;7.478;2023-03-14T03:18:43;98459.00;;;10.60
12854;BMP180;6495;51.808;7.478;2023-03-14T03:21:12;98456.00;;;10.60
12854;BMP180;6495;51.808;7.478;2023-03-14T03:23:42;98455.00;;;10.60
12854;BMP180;6495;51.808;7.478;2023-03-14T03:26:11;98451.00;;;10.60
12854;BMP180;6495;51.808;7.478;2023-03-14T03:28:39;98452.00;;;10.50
12854;BMP180;6495;51.808;7.478;2023-03-14T03:31:11;98465.00;;;10.50
12854;BMP180;6495;51.808;7.478;2023-03-14T03:33:39;98458.00;;;10.60
12854;BMP180;6495;51.808;7.478;2023-03-14T03:36:09;98459.00;;;10.60
12854;BMP180;6495;51.808;7.478;2023-03-14T03:38:39;98446.00;;;10.50
12854;BMP180;6495;51.808;7.478;2023-03-14T03:41:09;98461.00;;;10.60
12854;BMP180;6495;51.808;7.478;2023-03-14T03:43:37;98462.00;;;10.50
12854;BMP180;6495;51.808;7.478;2023-03-14T03:46:10;98458.00;;;10.60
12854;BMP180;6495;51.808;7.478;2023-03-14T03:48:38;98454.00;;;10.60
12854;BMP180;6495;51.808;7.478;2023-03-14T03:51:07;98462.00;;;10.60
12854;BMP180;6495;51.808;7.478;2023-03-14T03:53:39;98452.00;;;10.60
12854;BMP180;6495;51.808;7.478;2023-03-14T03:56:10;98454.00;;;10.60
12854;BMP180;6495;51.808;7.478;2023-03-14T03:58:40;98466.00;;;10.60
12854;BMP180;6495;51.808;7.478;2023-03-14T04:01:11;98454.00;;;10.60
12854;BMP180;6495;51.808;7.478;2023-03-14T04:03:40;98457.00;;;10.60
12854;BMP180;6495;51.808;7.478;2023-03-14T04:06:11;98454.00;;;10.60
12854;BMP180;6495;51.808;7.478;2023-03-14T04:08:43;98438.00;;;10.60
12854;BMP180;6495;51.808;7.478;2023-03-14T04:11:24;98441.00;;;10.50
12854;BMP180;6495;51.808;7.478;2023-03-14T04:14:03;98450.00;;;10.50
12854;BMP180;6495;51.808;7.478;2023-03-14T04:16:34;98446.00;;;10.50
12854;BMP180;6495;51.808;7.478;2023-03-14T04:19:11;98449.00;;;10.50
12854;BMP180;6495;51.808;7.478;2023-03-14T04:21:39;98448.00;;;10.50
12854;BMP180;6495;51.808;7.478;2023-03-14T04:24:12;98441.00;;;10.50
12854;BMP180;6495;51.808;7.478;2023-03-14T04:26:43;98449.00;;;10.50
12854;BMP180;6495;51.808;7.478;2023-03-14T04:29:11;98442.00;;;10.50
12854;BMP180;6495;51.808;7.478;2023-03-14T04:31:43;98440.00;;;10.50
12854;BMP180;6495;51.808;7.478;2023-03-14T04:34:12;98450.00;;;10.50
12854;BMP180;6495;51.808;7.478;2023-03-14T04:36:47;98433.00;;;10.50
12854;BMP180;6495;51.808;7.478;2023-03-14T04:39:20;98435.00;;;10.50
12854;BMP180;6495;51.808;7.478;2023-03-14T04:41:58;98428.00;;;10.50
12854;BMP180;6495;51.808;7.478;2023-03-14T04:44:26;98433.00;;;10.50
12854;BMP180;6495;51.808;7.478;2023-03-14T04:46:56;98417.00;;;10.50
12854;BMP180;6495;51.808;7.478;2023-03-14T04:49:25;98423.00;;;10.40
12854;BMP180;6495;51.808;7.478;2023-03-14T04:51:53;98409.00;;;10.40
12854;BMP180;6495;51.808;7.478;2023-03-14T04:54:24;98408.00;;;10.40
12854;BMP180;6495;51.808;7.478;2023-03-14T04:56:56;98393.00;;;10.40
12854;BMP180;6495;51.808;7.478;2023-03-14T04:59:27;98408.00;;;10.40
12854;BMP180;6495;51.808;7.478;2023-03-14T05:02:03;98394.00;;;10.50
12854;BMP180;6495;51.808;7.478;2023-03-14T05:04:46;98390.00;;;10.50
12854;BMP180;6495;51.808;7.478;2023-03-14T05:07:24;98387.00;;;10.40
12854;BMP180;6495;51.808;7.478;2023-03-14T05:10:07;98382.00;;;10.40
12854;BMP180;6495;51.808;7.478;2023-03-14T05:12:58;98385.00;;;10.40
12854;BMP180;6495;51.808;7.478;2023-03-14T05:15:48;98378.00;;;10.30
12854;BMP180;6495;51.808;7.478;2023-03-14T05:18:44;98388.00;;;10.30
12854;BMP180;6495;51.808;7.478;2023-03-14T05:21:48;98380.00;;;10.30
12854;BMP180;6495;51.808;7.478;2023-03-14T05:24:28;98360.00;;;10.20
12854;BMP180;6495;51.808;7.478;2023-03-14T05:27:10;98382.00;;;10.20
12854;BMP180;6495;51.808;7.478;2023-03-14T05:30:02;98379.00;;;10.30
12854;BMP180;6495;51.808;7.478;2023-03-14T05:32:39;98394.00;;;10.20
12854;BMP180;6495;51.808;7.478;2023-03-14T05:35:29;98379.00;;;10.20
12854;BMP180;6495;51.808;7.478;2023-03-14T05:38:16;98378.00;;;10.20
12854;BMP180;6495;51.808;7.478;2023-03-14T05:41:04;98377.00;;;10.10
12854;BMP180;6495;51.808;7.478;2023-03-14T05:43:51;98373.00;;;10.10
12854;BMP180;6495;51.808;7.478;2023-03-14T05:46:41;98380.00;;;10.10
12854;BMP180;6495;51.808;7.478;2023-03-14T05:49:34;98380.00;;;10.00
12854;BMP180;6495;51.808;7.478;2023-03-14T05:52:19;98375.00;;;10.00
12854;BMP180;6495;51.808;7.478;2023-03-14T05:55:08;98372.00;;;10.00
12854;BMP180;6495;51.808;7.478;2023-03-14T05:57:53;98383.00;;;10.00
12854;BMP180;6495;51.808;7.478;2023-03-14T06:00:51;98385.00;;;10.10
12854;BMP180;6495;51.808;7.478;2023-03-14T06:03:37;98384.00;;;10.10
12854;BMP180;6495;51.808;7.478;2023-03-14T06:06:08;98379.00;;;10.00
12854;BMP180;6495;51.808;7.478;2023-03-14T06:08:38;98379.00;;;10.00
12854;BMP180;6495;51.808;7.478;2023-03-14T06:11:09;98382.00;;;10.00
12854;BMP180;6495;51.808;7.478;2023-03-14T06:13:39;98383.00;;;10.00
12854;BMP180;6495;51.808;7.478;2023-03-14T06:16:11;98392.00;;;10.00
12854;BMP180;6495;51.808;7.478;2023-03-14T06:18:43;98391.00;;;10.00
12854;BMP180;6495;51.808;7.478;2023-03-14T06:21:14;98389.00;;;10.00
12854;BMP180;6495;51.808;7.478;2023-03-14T06:23:46;98390.00;;;10.00
12854;BMP180;6495;51.808;7.478;2023-03-14T06:26:16;98391.00;;;10.00
12854;BMP180;6495;51.808;7.478;2023-03-14T06:28:44;98398.00;;;10.10
12854;BMP180;6495;51.808;7.478;2023-03-14T06:31:13;98390.00;;;10.00
12854;BMP180;6495;51.808;7.478;2023-03-14T06:33:51;98395.00;;;10.00
12854;BMP180;6495;51.808;7.478;2023-03-14T06:36:20;98375.00;;;10.00
12854;BMP180;6495;51.808;7.478;2023-03-14T06:38:51;98394.00;;;10.00
12854;BMP180;6495;51.808;7.478;2023-03-14T06:41:20;98399.00;;;10.00
12854;BMP180;6495;51.808;7.478;2023-03-14T06:43:50;98385.00;;;10.00
12854;BMP180;6495;51.808;7.478;2023-03-14T06:46:22;98385.00;;;10.00
12854;BMP180;6495;51.808;7.478;2023-03-14T06:48:50;98388.00;;;9.90
12854;BMP180;6495;51.808;7.478;2023-03-14T06:51:19;98388.00;;;9.90
12854;BMP180;6495;51.808;7.478;2023-03-14T06:53:48;98386.00;;;9.90
12854;BMP180;6495;51.808;7.478;2023-03-14T06:56:21;98378.00;;;9.90
12854;BMP180;6495;51.808;7.478;2023-03-14T06:58:49;98383.00;;;9.80
12854;BMP180;6495;51.808;7.478;2023-03-14T07:01:24;98387.00;;;9.80
12854;BMP180;6495;51.808;7.478;2023-03-14T07:03:55;98387.00;;;9.90
12854;BMP180;6495;51.808;7.478;2023-03-14T07:06:24;98388.00;;;9.90
12854;BMP180;6495;51.808;7.478;2023-03-14T07:08:53;98377.00;;;9.80
12854;BMP180;6495;51.808;7.478;2023-03-14T07:11:24;98385.00;;;9.80
12854;BMP180;6495;51.808;7.478;2023-03-14T07:13:52;98388.00;;;9.80
12854;BMP180;6495;51.808;7.478;2023-03-14T07:16:21;98387.00;;;9.70
12854;BMP180;6495;51.808;7.478;2023-03-14T07:18:51;98386.00;;;9.70
12854;BMP180;6495;51.808;7.478;2023-03-14T07:21:19;98394.00;;;9.70
12854;BMP180;6495;51.808;7.478;2023-03-14T07:23:48;98386.00;;;9.80
12854;BMP180;6495;51.808;7.478;2023-03-14T07:26:17;98389.00;;;9.80
12854;BMP180;6495;51.808;7.478;2023-03-14T07:28:51;98395.00;;;9.80
12854;BMP180;6495;51.808;7.478;2023-03-14T07:31:21;98388.00;;;9.80
12854;BMP180;6495;51.808;7.478;2023-03-14T07:33:51;98392.00;;;9.90
12854;BMP180;6495;51.808;7.478;2023-03-14T07:36:21;98394.00;;;9.90
12854;BMP180;6495;51.808;7.478;2023-03-14T07:38:50;98402.00;;;9.90
12854;BMP180;6495;51.808;7.478;2023-03-14T07:41:19;98388.00;;;10.00
12854;BMP180;6495;51.808;7.478;2023-03-14T07:44:09;98395.00;;;9.90
12854;BMP180;6495;51.808;7.478;2023-03-14T07:46:37;98395.00;;;10.00
12854;BMP180;6495;51.808;7.478;2023-03-14T07:49:06;98398.00;;;10.00
12854;BMP180;6495;51.808;7.478;2023-03-14T07:51:34;98391.00;;;10.00
12854;BMP180;6495;51.808;7.478;2023-03-14T07:54:03;98401.00;;;10.00
12854;BMP180;6495;51.808;7.478;2023-03-14T07:56:31;98395.00;;;10.10
12854;BMP180;6495;51.808;7.478;2023-03-14T07:59:00;98395.00;;;10.10
12854;BMP180;6495;51.808;7.478;2023-03-14T08:01:29;98408.00;;;10.10
12854;BMP180;6495;51.808;7.478;2023-03-14T08:03:58;98396.00;;;10.10
12854;BMP180;6495;51.808;7.478;2023-03-14T08:06:27;98403.00;;;10.20
12854;BMP180;6495;51.808;7.478;2023-03-14T08:08:55;98398.00;;;10.20
12854;BMP180;6495;51.808;7.478;2023-03-14T08:11:24;98399.00;;;10.20
12854;BMP180;6495;51.808;7.478;2023-03-14T08:13:52;98408.00;;;10.30
12854;BMP180;6495;51.808;7.478;2023-03-14T08:16:21;98407.00;;;10.30
12854;BMP180;6495;51.808;7.478;2023-03-14T08:18:51;98411.00;;;10.30
12854;BMP180;6495;51.808;7.478;2023-03-14T08:21:20;98403.00;;;10.30
12854;BMP180;6495;51.808;7.478;2023-03-14T08:23:49;98417.00;;;10.30
12854;BMP180;6495;51.808;7.478;2023-03-14T08:26:17;98409.00;;;10.30
12854;BMP180;6495;51.808;7.478;2023-03-14T08:28:45;98415.00;;;10.30
12854;BMP180;6495;51.808;7.478;2023-03-14T08:31:14;98419.00;;;10.40
12854;BMP180;6495;51.808;7.478;2023-03-14T08:33:42;98413.00;;;10.40
12854;BMP180;6495;51.808;7.478;2023-03-14T08:36:12;98416.00;;;10.40
12854;BMP180;6495;51.808;7.478;2023-03-14T08:38:41;98410.00;;;10.50
12854;BMP180;6495;51.808;7.478;2023-03-14T08:41:10;98416.00;;;10.50
12854;BMP180;6495;51.808;7.478;2023-03-14T08:43:38;98413.00;;;10.50
12854;BMP180;6495;51.808;7.478;2023-03-14T08:46:07;98425.00;;;10.60
12854;BMP180;6495;51.808;7.478;2023-03-14T08:48:38;98425.00;;;10.60
12854;BMP180;6495;51.808;7.478;2023-03-14T08:51:07;98427.00;;;10.60
12854;BMP180;6495;51.808;7.478;2023-03-14T08:53:37;98427.00;;;10.70
12854;BMP180;6495;51.808;7.478;2023-03-14T08:56:07;98431.00;;;10.70
12854;BMP180;6495;51.808;7.478;2023-03-14T08:58:37;98433.00;;;10.70
12854;BMP180;6495;51.808;7.478;2023-03-14T09:01:08;98452.00;;;10.70
12854;BMP180;6495;51.808;7.478;2023-03-14T09:03:37;98449.00;;;10.70
12854;BMP180;6495;51.808;7.478;2023-03-14T09:06:09;98441.00;;;10.80
12854;BMP180;6495;51.808;7.478;2023-03-14T09:08:39;98448.00;;;10.70
12854;BMP180;6495;51.808;7.478;2023-03-14T09:11:08;98451.00;;;10.80
12854;BMP180;6495;51.808;7.478;2023-03-14T09:13:37;98448.00;;;10.80
12854;BMP180;6495;51.808;7.478;2023-03-14T09:16:07;98453.00;;;10.80
12854;BMP180;6495;51.808;7.478;2023-03-14T09:18:36;98450.00;;;10.80
12854;BMP180;6495;51.808;7.478;2023-03-14T09:21:05;98447.00;;;10.90
12854;BMP180;6495;51.808;7.478;2023-03-14T09:23:34;98453.00;;;10.90
12854;BMP180;6495;51.808;7.478;2023-03-14T09:26:04;98458.00;;;10.90
12854;BMP180;6495;51.808;7.478;2023-03-14T09:28:34;98459.00;;;10.90
12854;BMP180;6495;51.808;7.478;2023-03-14T09:31:07;98467.00;;;10.90
12854;BMP180;6495;51.808;7.478;2023-03-14T09:33:37;98471.00;;;11.00
12854;BMP180;6495;51.808;7.478;2023-03-14T09:36:09;98470.00;;;11.00
12854;BMP180;6495;51.808;7.478;2023-03-14T09:38:37;98478.00;;;11.00
12854;BMP180;6495;51.808;7.478;2023-03-14T09:41:16;98495.00;;;11.00
12854;BMP180;6495;51.808;7.478;2023-03-14T09:43:48;98512.00;;;10.80
12854;BMP180;6495;51.808;7.478;2023-03-14T09:46:18;98527.00;;;10.60
12854;BMP180;6495;51.808;7.478;2023-03-14T09:48:47;98545.00;;;10.40
12854;BMP180;6495;51.808;7.478;2023-03-14T09:51:20;98564.00;;;10.20
12854;BMP180;6495;51.808;7.478;2023-03-14T09:53:51;98582.00;;;10.10
12854;BMP180;6495;51.808;7.478;2023-03-14T09:56:28;98580.00;;;9.90
12854;BMP180;6495;51.808;7.478;2023-03-14T09:59:00;98597.00;;;9.70
12854;BMP180;6495;51.808;7.478;2023-03-14T10:01:33;98607.00;;;9.60
12854;BMP180;6495;51.808;7.478;2023-03-14T10:04:10;98615.00;;;9.50
12854;BMP180;6495;51.808;7.478;2023-03-14T10:06:40;98614.00;;;9.30
12854;BMP180;6495;51.808;7.478;2023-03-14T10:09:22;98632.00;;;9.20
12854;BMP180;6495;51.808;7.478;2023-03-14T10:11:57;98641.00;;;9.10
12854;BMP180;6495;51.808;7.478;2023-03-14T10:14:33;98654.00;;;9.10
12854;BMP180;6495;51.808;7.478;2023-03-14T10:17:08;98681.00;;;9.00
12854;BMP180;6495;51.808;7.478;2023-03-14T10:19:50;98687.00;;;9.00
12854;BMP180;6495;51.808;7.478;2023-03-14T10:22:23;98692.00;;;9.00
12854;BMP180;6495;51.808;7.478;2023-03-14T10:25:02;98706.00;;;8.90
12854;BMP180;6495;51.808;7.478;2023-03-14T10:27:35;98714.00;;;8.90
12854;BMP180;6495;51.808;7.478;2023-03-14T10:30:07;98730.00;;;8.80
12854;BMP180;6495;51.808;7.478;2023-03-14T10:32:38;98739.00;;;8.80
12854;BMP180;6495;51.808;7.478;2023-03-14T10:35:21;98760.00;;;8.70
12854;BMP180;6495;51.808;7.478;2023-03-14T10:37:57;98760.00;;;8.60
12854;BMP180;6495;51.808;7.478;2023-03-14T10:40:31;98783.00;;;8.50
12854;BMP180;6495;51.808;7.478;2023-03-14T10:43:05;98801.00;;;8.40
12854;BMP180;6495;51.808;7.478;2023-03-14T10:45:38;98809.00;;;8.40
12854;BMP180;6495;51.808;7.478;2023-03-14T10:48:20;98825.00;;;8.30
12854;BMP180;6495;51.808;7.478;2023-03-14T10:50:55;98852.00;;;8.30
12854;BMP180;6495;51.808;7.478;2023-03-14T10:53:25;98862.00;;;8.20
12854;BMP180;6495;51.808;7.478;2023-03-14T10:56:02;98874.00;;;8.10
12854;BMP180;6495;51.808;7.478;2023-03-14T10:58:41;98893.00;;;7.90
12854;BMP180;6495;51.808;7.478;2023-03-14T11:01:36;98909.00;;;7.90
12854;BMP180;6495;51.808;7.478;2023-03-14T11:04:24;98932.00;;;7.70
12854;BMP180;6495;51.808;7.478;2023-03-14T11:07:03;98950.00;;;7.60
12854;BMP180;6495;51.808;7.478;2023-03-14T11:09:40;98968.00;;;7.50
12854;BMP180;6495;51.808;7.478;2023-03-14T11:12:35;98970.00;;;7.30
12854;BMP180;6495;51.808;7.478;2023-03-14T11:15:15;98978.00;;;7.30
12854;BMP180;6495;51.808;7.478;2023-03-14T11:17:59;98990.00;;;7.30
12854;BMP180;6495;51.808;7.478;2023-03-14T11:20:39;99003.00;;;7.30
12854;BMP180;6495;51.808;7.478;2023-03-14T11:23:16;99021.00;;;7.30
12854;BMP180;6495;51.808;7.478;2023-03-14T11:25:54;99037.00;;;7.30
12854;BMP180;6495;51.808;7.478;2023-03-14T11:28:35;99049.00;;;7.30
12854;BMP180;6495;51.808;7.478;2023-03-14T11:31:15;99068.00;;;7.30
12854;BMP180;6495;51.808;7.478;2023-03-14T11:33:54;99068.00;;;7.30
12854;BMP180;6495;51.808;7.478;2023-03-14T11:36:31;99080.00;;;7.30
12854;BMP180;6495;51.808;7.478;2023-03-14T11:39:01;99088.00;;;7.30
12854;BMP180;6495;51.808;7.478;2023-03-14T11:41:34;99100.00;;;7.30
12854;BMP180;6495;51.808;7.478;2023-03-14T11:44:17;99112.00;;;7.20
12854;BMP180;6495;51.808;7.478;2023-03-14T11:46:52;99130.00;;;7.20
12854;BMP180;6495;51.808;7.478;2023-03-14T11:49:34;99136.00;;;7.20
12854;BMP180;6495;51.808;7.478;2023-03-14T11:52:11;99148.00;;;7.10
12854;BMP180;6495;51.808;7.478;2023-03-14T11:54:46;99153.00;;;7.10
12854;BMP180;6495;51.808;7.478;2023-03-14T11:57:19;99156.00;;;7.20
12854;BMP180;6495;51.808;7.478;2023-03-14T11:59:55;99157.00;;;7.20
12854;BMP180;6495;51.808;7.478;2023-03-14T12:02:38;99164.00;;;7.10
12854;BMP180;6495;51.808;7.478;2023-03-14T12:05:38;99173.00;;;7.10
12854;BMP180;6495;51.808;7.478;2023-03-14T12:08:39;99181.00;;;7.10
12854;BMP180;6495;51.808;7.478;2023-03-14T12:11:29;99180.00;;;7.10
12854;BMP180;6495;51.808;7.478;2023-03-14T12:14:00;99193.00;;;7.10
12854;BMP180;6495;51.808;7.478;2023-03-14T12:16:47;99184.00;;;7.20
12854;BMP180;6495;51.808;7.478;2023-03-14T12:19:32;99191.00;;;7.20
12854;BMP180;6495;51.808;7.478;2023-03-14T12:22:28;99203.00;;;7.40
12854;BMP180;6495;51.808;7.478;2023-03-14T12:25:14;99206.00;;;7.40
12854;BMP180;6495;51.808;7.478;2023-03-14T12:28:03;99210.00;;;7.40
12854;BMP180;6495;51.808;7.478;2023-03-14T12:30:35;99224.00;;;7.40
12854;BMP180;6495;51.808;7.478;2023-03-14T12:33:29;99239.00;;;7.50
12854;BMP180;6495;51.808;7.478;2023-03-14T12:36:11;99239.00;;;7.50
12854;BMP180;6495;51.808;7.478;2023-03-14T12:39:21;99259.00;;;7.50
12854;BMP180;6495;51.808;7.478;2023-03-14T12:42:03;99289.00;;;7.50
12854;BMP180;6495;51.808;7.478;2023-03-14T12:44:47;99308.00;;;7.30
12854;BMP180;6495;51.808;7.478;2023-03-14T12:48:01;99311.00;;;7.10
12854;BMP180;6495;51.808;7.478;2023-03-14T12:50:36;99299.00;;;7.10
12854;BMP180;6495;51.808;7.478;2023-03-14T12:53:49;99325.00;;;7.00
12854;BMP180;6495;51.808;7.478;2023-03-14T12:56:27;99326.00;;;7.00
12854;BMP180;6495;51.808;7.478;2023-03-14T12:59:34;99329.00;;;7.00
12854;BMP180;6495;51.808;7.478;2023-03-14T13:02:22;99341.00;;;7.00
12854;BMP180;6495;51.808;7.478;2023-03-14T13:05:00;99357.00;;;6.90
12854;BMP180;6495;51.808;7.478;2023-03-14T13:10:22;99363.00;;;6.70
12854;BMP180;6495;51.808;7.478;2023-03-14T13:12:56;99371.00;;;6.70
12854;BMP180;6495;51.808;7.478;2023-03-14T13:15:30;99376.00;;;6.70
12854;BMP180;6495;51.808;7.478;2023-03-14T13:18:03;99386.00;;;6.70
12854;BMP180;6495;51.808;7.478;2023-03-14T13:20:41;99396.00;;;6.70
12854;BMP180;6495;51.808;7.478;2023-03-14T13:23:23;99392.00;;;6.80
12854;BMP180;6495;51.808;7.478;2023-03-14T13:25:53;99403.00;;;6.90
12854;BMP180;6495;51.808;7.478;2023-03-14T13:28:22;99403.00;;;6.90
12854;BMP180;6495;51.808;7.478;2023-03-14T13:30:57;99401.00;;;7.00
12854;BMP180;6495;51.808;7.478;2023-03-14T13:33:26;99407.00;;;7.00
12854;BMP180;6495;51.808;7.478;2023-03-14T13:35:57;99426.00;;;7.10
12854;BMP180;6495;51.808;7.478;2023-03-14T13:38:29;99428.00;;;7.10
12854;BMP180;6495;51.808;7.478;2023-03-14T13:41:04;99419.00;;;7.20
12854;BMP180;6495;51.808;7.478;2023-03-14T13:43:36;99433.00;;;7.30
12854;BMP180;6495;51.808;7.478;2023-03-14T13:46:15;99445.00;;;7.30
12854;BMP180;6495;51.808;7.478;2023-03-14T13:48:47;99449.00;;;7.30
12854;BMP180;6495;51.808;7.478;2023-03-14T13:51:18;99466.00;;;7.40
12854;BMP180;6495;51.808;7.478;2023-03-14T13:53:50;99465.00;;;7.40
12854;BMP180;6495;51.808;7.478;2023-03-14T13:56:21;99467.00;;;7.40
12854;BMP180;6495;51.808;7.478;2023-03-14T13:58:50;99475.00;;;7.40
12854;BMP180;6495;51.808;7.478;2023-03-14T14:01:22;99478.00;;;7.50
12854;BMP180;6495;51.808;7.478;2023-03-14T14:04:07;99488.00;;;7.60
12854;BMP180;6495;51.808;7.478;2023-03-14T14:06:38;99484.00;;;7.60
12854;BMP180;6495;51.808;7.478;2023-03-14T14:09:15;99498.00;;;7.70
12854;BMP180;6495;51.808;7.478;2023-03-14T14:11:53;99499.00;;;7.70
12854;BMP180;6495;51.808;7.478;2023-03-14T14:14:45;99519.00;;;7.70
12854;BMP180;6495;51.808;7.478;2023-03-14T14:17:18;99516.00;;;7.70
12854;BMP180;6495;51.808;7.478;2023-03-14T14:19:49;99537.00;;;7.70
12854;BMP180;6495;51.808;7.478;2023-03-14T14:22:18;99541.00;;;7.70
12854;BMP180;6495;51.808;7.478;2023-03-14T14:24:47;99550.00;;;7.70
12854;BMP180;6495;51.808;7.478;2023-03-14T14:27:27;99554.00;;;7.60
12854;BMP180;6495;51.808;7.478;2023-03-14T14:30:01;99563.00;;;7.60
12854;BMP180;6495;51.808;7.478;2023-03-14T14:32:36;99561.00;;;7.50
12854;BMP180;6495;51.808;7.478;2023-03-14T14:35:08;99574.00;;;7.50
12854;BMP180;6495;51.808;7.478;2023-03-14T14:37:43;99588.00;;;7.60
12854;BMP180;6495;51.808;7.478;2023-03-14T14:40:19;99586.00;;;7.60
12854;BMP180;6495;51.808;7.478;2023-03-14T14:42:50;99591.00;;;7.60
12854;BMP180;6495;51.808;7.478;2023-03-14T14:45:22;99594.00;;;7.60
12854;BMP180;6495;51.808;7.478;2023-03-14T14:47:53;99600.00;;;7.60
12854;BMP180;6495;51.808;7.478;2023-03-14T14:50:29;99599.00;;;7.50
12854;BMP180;6495;51.808;7.478;2023-03-14T14:53:00;99615.00;;;7.50
12854;BMP180;6495;51.808;7.478;2023-03-14T14:55:33;99626.00;;;7.50
12854;BMP180;6495;51.808;7.478;2023-03-14T14:58:22;99643.00;;;7.50
12854;BMP180;6495;51.808;7.478;2023-03-14T15:00:56;99648.00;;;7.40
12854;BMP180;6495;51.808;7.478;2023-03-14T15:03:31;99651.00;;;7.50
12854;BMP180;6495;51.808;7.478;2023-03-14T15:06:00;99647.00;;;7.50
12854;BMP180;6495;51.808;7.478;2023-03-14T15:08:29;99660.00;;;7.50
12854;BMP180;6495;51.808;7.478;2023-03-14T15:10:59;99658.00;;;7.50